Time;durP1;ratioP1;P1;durP2;ratioP2;P2;SDS_P1;SDS_P2;PMS_P1;PMS_P2;Temp;Humidity;BMP_temperature;BMP_pressure;BME280_temperature;BME280_humidity;BME280_pressure;Samples;Min_cycle;Max_cycle;Signal;HPM_P1;HPM_P2
2023/05/09 00:01:35;;;;;;;19.13;12.33;;;;;;;;;;5072655;28;20411;-81
2023/05/09 00:04:01;;;;;;;12.23;10.97;;;;;;;;;;5073048;28;20411;-81
2023/05/09 00:06:27;;;;;;;17.93;13.33;;;;;;;;;;5072480;28;20414;-81
2023/05/09 00:08:54;;;;;;;14.50;12.83;;;;;;;;;;5072775;28;20473;-81
2023/05/09 00:11:23;;;;;;;13.63;12.00;;;;;;;;;;5072537;28;20399;-81
2023/05/09 00:13:49;;;;;;;16.97;12.83;;;;;;;;;;5072797;28;20404;-81
2023/05/09 00:16:16;;;;;;;17.13;13.80;;;;;;;;;;5073403;28;20500;-81
2023/05/09 00:18:43;;;;;;;18.43;12.30;;;;;;;;;;5072775;28;20463;-81
2023/05/09 00:21:10;;;;;;;16.03;13.30;;;;;;;;;;5073905;28;20403;-81
2023/05/09 00:23:36;;;;;;;17.60;12.20;;;;;;;;;;5073482;28;20399;-81
2023/05/09 00:26:02;;;;;;;19.23;13.00;;;;;;;;;;5072438;28;20451;-80
2023/05/09 00:28:28;;;;;;;18.90;13.13;;;;;;;;;;5073709;28;20407;-80
2023/05/09 00:30:54;;;;;;;24.47;18.17;;;;;;;;;;5055974;28;20788;-81
2023/05/09 00:33:20;;;;;;;16.93;14.00;;;;;;;;;;5072299;28;20386;-81
2023/05/09 00:35:46;;;;;;;17.53;13.90;;;;;;;;;;5072502;28;20485;-81
2023/05/09 00:38:13;;;;;;;15.20;11.67;;;;;;;;;;5072508;28;20495;-81
2023/05/09 00:40:39;;;;;;;16.00;12.20;;;;;;;;;;5072494;28;20415;-81
2023/05/09 00:43:05;;;;;;;15.57;12.73;;;;;;;;;;5073816;28;20378;-81
2023/05/09 00:45:31;;;;;;;21.33;15.90;;;;;;;;;;5071961;28;20394;-81
2023/05/09 00:47:57;;;;;;;19.67;14.47;;;;;;;;;;5073614;28;20460;-81
2023/05/09 00:50:24;;;;;;;19.17;13.33;;;;;;;;;;5057109;28;21072;-81
2023/05/09 00:52:50;;;;;;;18.67;14.70;;;;;;;;;;5076478;28;20849;-81
2023/05/09 00:55:17;;;;;;;23.60;16.50;;;;;;;;;;5077038;28;20494;-82
2023/05/09 00:57:43;;;;;;;20.80;15.57;;;;;;;;;;5076300;28;20430;-81
2023/05/09 01:00:12;;;;;;;31.27;19.70;;;;;;;;;;5076394;28;20895;-81
2023/05/09 01:02:42;;;;;;;25.50;18.73;;;;;;;;;;5075923;28;20423;-81
2023/05/09 01:05:08;;;;;;;26.50;18.77;;;;;;;;;;5077384;28;20395;-81
2023/05/09 01:07:43;;;;;;;21.83;17.10;;;;;;;;;;5075710;28;20895;-81
2023/05/09 01:10:20;;;;;;;19.10;14.93;;;;;;;;;;5077511;28;20374;-82
2023/05/09 01:12:49;;;;;;;22.30;17.27;;;;;;;;;;5075985;28;20410;-81
2023/05/09 01:15:34;;;;;;;24.77;16.77;;;;;;;;;;5075765;28;20911;-90
2023/05/09 01:18:06;;;;;;;29.10;17.20;;;;;;;;;;5076593;28;20527;-82
2023/05/09 01:20:35;;;;;;;19.67;16.90;;;;;;;;;;5075767;28;20472;-82
2023/05/09 01:23:20;;;;;;;24.73;17.20;;;;;;;;;;5077177;28;20438;-82
2023/05/09 01:25:52;;;;;;;23.70;18.53;;;;;;;;;;5075802;28;20465;-82
2023/05/09 01:28:18;;;;;;;29.90;19.67;;;;;;;;;;5075301;28;20426;-82
2023/05/09 01:30:46;;;;;;;29.73;20.60;;;;;;;;;;5075599;28;20423;-82
2023/05/09 01:33:13;;;;;;;24.07;17.17;;;;;;;;;;5075588;28;20775;-82
2023/05/09 01:35:40;;;;;;;29.10;20.00;;;;;;;;;;5076576;28;20377;-82
2023/05/09 01:38:09;;;;;;;25.07;19.90;;;;;;;;;;5075644;28;20454;-81
2023/05/09 01:40:36;;;;;;;23.37;16.93;;;;;;;;;;5076152;28;20892;-82
2023/05/09 01:43:05;;;;;;;23.93;19.20;;;;;;;;;;5059152;28;20386;-81
2023/05/09 01:45:32;;;;;;;26.10;18.83;;;;;;;;;;5076122;28;20430;-81
2023/05/09 01:47:58;;;;;;;25.93;18.73;;;;;;;;;;5075262;28;20419;-82
2023/05/09 01:50:24;;;;;;;25.10;17.47;;;;;;;;;;5075205;28;20426;-82
2023/05/09 01:52:52;;;;;;;23.37;19.37;;;;;;;;;;5076658;28;20378;-82
2023/05/09 01:55:19;;;;;;;22.07;16.47;;;;;;;;;;5076603;28;20378;-84
2023/05/09 01:57:45;;;;;;;28.90;16.33;;;;;;;;;;5076476;28;20444;-81
2023/05/09 02:00:12;;;;;;;21.90;16.43;;;;;;;;;;5076461;28;20389;-82
2023/05/09 02:02:39;;;;;;;27.37;15.60;;;;;;;;;;5074362;28;20776;-82
2023/05/09 02:05:05;;;;;;;25.27;16.97;;;;;;;;;;5075313;28;20451;-82
2023/05/09 02:07:32;;;;;;;25.80;17.30;;;;;;;;;;5076190;28;20385;-82
2023/05/09 02:09:59;;;;;;;25.23;18.03;;;;;;;;;;5076052;28;20430;-82
2023/05/09 02:12:25;;;;;;;25.03;17.57;;;;;;;;;;5074590;28;20419;-82
2023/05/09 02:14:52;;;;;;;26.07;17.03;;;;;;;;;;5058149;28;20468;-81
2023/05/09 02:17:18;;;;;;;22.60;16.53;;;;;;;;;;5075624;28;20561;-82
2023/05/09 02:19:44;;;;;;;23.57;16.57;;;;;;;;;;5076112;28;20836;-82
2023/05/09 02:22:11;;;;;;;21.60;16.43;;;;;;;;;;5074768;28;20395;-82
2023/05/09 02:24:37;;;;;;;28.37;19.40;;;;;;;;;;5074474;28;20519;-82
2023/05/09 02:27:04;;;;;;;25.23;18.73;;;;;;;;;;5074783;28;20396;-81
2023/05/09 02:29:39;;;;;;;22.93;17.63;;;;;;;;;;5057838;28;20547;-82
2023/05/09 02:32:25;;;;;;;25.10;16.30;;;;;;;;;;5074845;28;20377;-81
2023/05/09 02:34:52;;;;;;;25.47;17.33;;;;;;;;;;5075634;28;20779;-82
2023/05/09 02:37:19;;;;;;;30.63;18.53;;;;;;;;;;5074345;28;20422;-82
2023/05/09 02:39:45;;;;;;;19.60;16.43;;;;;;;;;;5074162;28;20419;-82
2023/05/09 02:42:12;;;;;;;22.37;16.80;;;;;;;;;;5074288;28;20447;-81
2023/05/09 02:44:39;;;;;;;18.13;14.50;;;;;;;;;;5074140;28;20407;-81
2023/05/09 02:47:06;;;;;;;21.80;15.43;;;;;;;;;;5074278;28;20514;-81
2023/05/09 02:49:32;;;;;;;21.37;15.30;;;;;;;;;;5074177;28;20415;-82
2023/05/09 02:51:58;;;;;;;18.23;14.30;;;;;;;;;;5074307;28;20743;-81
2023/05/09 02:54:24;;;;;;;19.70;13.60;;;;;;;;;;5075310;28;20829;-82
2023/05/09 02:56:51;;;;;;;19.60;14.93;;;;;;;;;;5074029;28;20417;-81
2023/05/09 02:59:18;;;;;;;19.17;14.57;;;;;;;;;;5057522;28;20512;-82
2023/05/09 03:01:45;;;;;;;16.40;13.03;;;;;;;;;;5057257;28;20835;-82
2023/05/09 03:04:11;;;;;;;18.27;13.97;;;;;;;;;;5057542;28;20484;-82
2023/05/09 03:06:37;;;;;;;20.20;14.40;;;;;;;;;;5073717;28;20411;-82
2023/05/09 03:09:03;;;;;;;18.33;14.30;;;;;;;;;;5057188;28;20415;-81
2023/05/09 03:11:29;;;;;;;22.07;15.10;;;;;;;;;;5073366;28;20429;-80
2023/05/09 03:13:55;;;;;;;22.43;14.97;;;;;;;;;;5073852;28;20415;-80
2023/05/09 03:16:21;;;;;;;19.83;14.23;;;;;;;;;;5074567;28;20446;-80
2023/05/09 03:18:47;;;;;;;25.93;16.90;;;;;;;;;;5074504;28;20455;-80
2023/05/09 03:21:13;;;;;;;24.03;16.97;;;;;;;;;;5056790;28;20477;-80
2023/05/09 03:23:39;;;;;;;23.80;15.60;;;;;;;;;;5073123;28;20744;-81
2023/05/09 03:26:05;;;;;;;23.30;17.20;;;;;;;;;;5057116;28;20771;-81
2023/05/09 03:28:31;;;;;;;19.63;16.33;;;;;;;;;;5056820;28;20397;-81
2023/05/09 03:30:57;;;;;;;26.47;16.97;;;;;;;;;;5056824;28;20419;-81
2023/05/09 03:33:23;;;;;;;23.77;15.97;;;;;;;;;;5073464;28;20401;-84
2023/05/09 03:35:49;;;;;;;22.57;15.50;;;;;;;;;;5057428;28;20439;-81
2023/05/09 03:38:15;;;;;;;19.13;14.07;;;;;;;;;;5057035;28;20817;-81
2023/05/09 03:40:41;;;;;;;20.77;14.30;;;;;;;;;;5072953;28;20747;-81
2023/05/09 03:43:07;;;;;;;21.23;15.17;;;;;;;;;;5073188;28;20426;-80
2023/05/09 03:45:34;;;;;;;21.50;15.77;;;;;;;;;;5072800;28;20415;-81
2023/05/09 03:48:04;;;;;;;18.00;14.57;;;;;;;;;;5074457;28;20443;-81
2023/05/09 03:50:30;;;;;;;23.17;16.00;;;;;;;;;;5072811;28;20914;-81
2023/05/09 03:52:56;;;;;;;21.83;16.17;;;;;;;;;;5056534;28;20799;-81
2023/05/09 03:55:22;;;;;;;20.30;16.07;;;;;;;;;;5072970;28;20417;-80
2023/05/09 03:57:49;;;;;;;23.10;16.30;;;;;;;;;;5072949;28;20463;-81
2023/05/09 04:00:15;;;;;;;20.57;15.97;;;;;;;;;;5072883;28;20506;-81
2023/05/09 04:02:41;;;;;;;20.57;15.30;;;;;;;;;;5072675;28;20389;-81
2023/05/09 04:05:07;;;;;;;18.93;14.67;;;;;;;;;;5074026;28;20410;-80
2023/05/09 04:07:33;;;;;;;21.43;14.97;;;;;;;;;;5072798;28;20426;-81
2023/05/09 04:09:59;;;;;;;20.20;15.50;;;;;;;;;;5056389;28;20415;-81
2023/05/09 04:12:25;;;;;;;28.10;17.60;;;;;;;;;;5073937;28;20407;-80
2023/05/09 04:14:51;;;;;;;25.57;17.67;;;;;;;;;;5072873;28;20435;-81
2023/05/09 04:17:18;;;;;;;28.87;20.33;;;;;;;;;;5072435;28;20512;-81
2023/05/09 04:19:44;;;;;;;34.63;19.33;;;;;;;;;;5072340;28;20843;-81
2023/05/09 04:22:10;;;;;;;29.57;19.00;;;;;;;;;;5072472;28;20481;-81
2023/05/09 04:24:36;;;;;;;26.80;18.43;;;;;;;;;;5055435;28;20397;-81
2023/05/09 04:27:02;;;;;;;30.00;21.10;;;;;;;;;;5072424;28;20791;-81
2023/05/09 04:29:28;;;;;;;25.70;18.50;;;;;;;;;;5072155;28;20513;-81
2023/05/09 04:31:54;;;;;;;27.20;18.13;;;;;;;;;;5072512;28;20453;-81
2023/05/09 04:34:20;;;;;;;30.17;19.20;;;;;;;;;;5072337;28;20472;-81
2023/05/09 04:36:46;;;;;;;29.23;19.37;;;;;;;;;;5055234;28;20419;-81
2023/05/09 04:39:12;;;;;;;27.23;18.57;;;;;;;;;;5055659;28;20469;-81
2023/05/09 04:41:38;;;;;;;28.00;20.47;;;;;;;;;;5072276;28;20933;-81
2023/05/09 04:44:05;;;;;;;24.93;20.00;;;;;;;;;;5072524;28;20475;-81
2023/05/09 04:46:31;;;;;;;37.13;24.40;;;;;;;;;;5073452;28;20535;-81
2023/05/09 04:48:57;;;;;;;35.20;24.73;;;;;;;;;;5072413;28;20873;-81
2023/05/09 04:51:23;;;;;;;34.47;23.47;;;;;;;;;;5073661;28;20523;-81
2023/05/09 04:53:49;;;;;;;30.80;23.67;;;;;;;;;;5055646;28;20446;-81
2023/05/09 04:56:15;;;;;;;36.87;23.00;;;;;;;;;;5055934;28;20894;-83
2023/05/09 04:58:41;;;;;;;29.23;21.13;;;;;;;;;;5072141;28;20482;-81
2023/05/09 05:01:07;;;;;;;29.60;22.30;;;;;;;;;;5071734;28;20419;-81
2023/05/09 05:03:33;;;;;;;30.13;20.53;;;;;;;;;;5055614;28;20798;-84
2023/05/09 05:05:59;;;;;;;30.87;21.93;;;;;;;;;;5073534;28;20378;-83
2023/05/09 05:08:25;;;;;;;33.03;21.57;;;;;;;;;;5055594;28;20903;-83
2023/05/09 05:10:51;;;;;;;30.43;21.73;;;;;;;;;;5072226;28;20494;-83
2023/05/09 05:13:17;;;;;;;29.33;21.73;;;;;;;;;;5072677;28;20442;-83
2023/05/09 05:15:43;;;;;;;25.97;21.13;;;;;;;;;;5055535;28;20394;-84
2023/05/09 05:18:09;;;;;;;31.53;21.50;;;;;;;;;;5055453;28;20573;-83
2023/05/09 05:20:35;;;;;;;27.33;21.53;;;;;;;;;;5072281;28;20431;-83
2023/05/09 05:23:02;;;;;;;27.67;21.23;;;;;;;;;;5055916;28;20394;-83
2023/05/09 05:25:28;;;;;;;26.17;20.20;;;;;;;;;;5055691;28;20416;-83
2023/05/09 05:27:54;;;;;;;29.83;20.80;;;;;;;;;;5071689;28;20774;-83
2023/05/09 05:30:20;;;;;;;24.33;20.37;;;;;;;;;;5055371;28;20518;-83
2023/05/09 05:32:46;;;;;;;23.60;19.60;;;;;;;;;;5071750;28;20472;-83
2023/05/09 05:35:12;;;;;;;25.33;18.67;;;;;;;;;;5071937;28;20490;-82
2023/05/09 05:37:39;;;;;;;20.30;18.10;;;;;;;;;;5074671;28;20405;-83
2023/05/09 05:40:05;;;;;;;22.33;18.70;;;;;;;;;;5075609;28;20407;-83
2023/05/09 05:42:32;;;;;;;22.90;19.20;;;;;;;;;;5076558;28;20407;-85
2023/05/09 05:45:03;;;;;;;20.70;18.60;;;;;;;;;;5077071;28;20446;-83
2023/05/09 05:47:31;;;;;;;21.07;17.93;;;;;;;;;;5076926;28;20492;-83
2023/05/09 05:49:57;;;;;;;22.03;18.27;;;;;;;;;;5075492;28;20386;-83
2023/05/09 05:52:23;;;;;;;25.70;19.73;;;;;;;;;;5076836;28;20423;-83
2023/05/09 05:54:49;;;;;;;20.20;17.93;;;;;;;;;;5075275;28;20886;-83
2023/05/09 05:57:15;;;;;;;17.63;15.53;;;;;;;;;;5075424;28;20408;-83
2023/05/09 05:59:41;;;;;;;18.37;16.00;;;;;;;;;;5075252;28;20811;-83
2023/05/09 06:02:07;;;;;;;18.83;16.77;;;;;;;;;;5058579;28;20420;-83
2023/05/09 06:04:34;;;;;;;19.23;16.80;;;;;;;;;;5058247;28;20426;-84
2023/05/09 06:07:00;;;;;;;19.70;17.50;;;;;;;;;;5075223;28;20731;-83
2023/05/09 06:09:26;;;;;;;20.53;17.00;;;;;;;;;;5075293;28;20414;-82
2023/05/09 06:11:52;;;;;;;18.20;16.30;;;;;;;;;;5076378;28;20411;-83
2023/05/09 06:14:18;;;;;;;18.90;16.87;;;;;;;;;;5058066;28;20419;-83
2023/05/09 06:16:44;;;;;;;16.80;15.10;;;;;;;;;;5058107;28;20457;-83
2023/05/09 06:19:10;;;;;;;16.20;14.50;;;;;;;;;;5075005;28;20466;-83
2023/05/09 06:21:36;;;;;;;15.77;13.80;;;;;;;;;;5074836;28;20468;-84
2023/05/09 06:24:02;;;;;;;17.67;15.00;;;;;;;;;;5076620;28;20427;-83
2023/05/09 06:26:28;;;;;;;17.07;15.27;;;;;;;;;;5058302;28;20911;-83
2023/05/09 06:28:55;;;;;;;18.97;15.93;;;;;;;;;;5058825;28;20431;-82
2023/05/09 06:31:21;;;;;;;20.57;14.73;;;;;;;;;;5058302;28;20397;-83
2023/05/09 06:33:47;;;;;;;17.70;15.70;;;;;;;;;;5057961;28;20419;-83
2023/05/09 06:36:13;;;;;;;16.17;14.10;;;;;;;;;;5076064;28;20815;-83
2023/05/09 06:38:39;;;;;;;20.33;14.50;;;;;;;;;;5057717;28;20565;-83
2023/05/09 06:41:05;;;;;;;19.23;14.60;;;;;;;;;;5074801;28;20396;-83
2023/05/09 06:43:31;;;;;;;18.03;13.80;;;;;;;;;;5074320;28;20434;-83
2023/05/09 06:45:57;;;;;;;17.20;13.67;;;;;;;;;;5076196;28;20875;-82
2023/05/09 06:48:25;;;;;;;14.53;13.03;;;;;;;;;;5074533;28;20518;-83
2023/05/09 06:50:52;;;;;;;16.00;13.90;;;;;;;;;;5058514;28;20516;-83
2023/05/09 06:53:18;;;;;;;15.00;12.90;;;;;;;;;;5058136;28;20426;-83
2023/05/09 06:55:44;;;;;;;15.03;11.20;;;;;;;;;;5057730;28;20850;-83
2023/05/09 06:58:11;;;;;;;12.37;11.07;;;;;;;;;;5058042;28;20469;-83
2023/05/09 07:00:37;;;;;;;13.33;11.93;;;;;;;;;;5058074;28;20857;-85
2023/05/09 07:03:06;;;;;;;9.93;8.93;;;;;;;;;;5073956;28;20398;-83
2023/05/09 07:05:32;;;;;;;10.97;9.47;;;;;;;;;;5057782;28;20830;-83
2023/05/09 07:07:58;;;;;;;10.20;9.20;;;;;;;;;;5073419;28;20428;-83
2023/05/09 07:10:24;;;;;;;10.13;8.87;;;;;;;;;;5073823;28;20407;-83
2023/05/09 07:12:50;;;;;;;9.90;8.77;;;;;;;;;;5073514;28;20390;-84
2023/05/09 07:15:16;;;;;;;10.60;8.03;;;;;;;;;;5074909;28;20514;-84
2023/05/09 07:17:42;;;;;;;7.23;6.43;;;;;;;;;;5073328;28;20477;-84
2023/05/09 07:20:08;;;;;;;8.40;6.77;;;;;;;;;;5073435;28;20495;-84
2023/05/09 07:22:34;;;;;;;8.27;6.60;;;;;;;;;;5074965;28;20400;-84
2023/05/09 07:25:00;;;;;;;6.87;6.17;;;;;;;;;;5056692;28;20791;-84
2023/05/09 07:27:26;;;;;;;9.27;6.20;;;;;;;;;;5057129;28;20422;-84
2023/05/09 07:29:52;;;;;;;6.03;5.37;;;;;;;;;;5074686;28;20426;-84
2023/05/09 07:32:19;;;;;;;6.40;5.80;;;;;;;;;;5073334;28;20782;-84
2023/05/09 07:34:45;;;;;;;9.07;5.13;;;;;;;;;;5074049;28;20886;-84
2023/05/09 07:37:11;;;;;;;6.27;5.40;;;;;;;;;;5073506;28;20409;-84
2023/05/09 07:39:36;;;;;;;6.73;6.03;;;;;;;;;;5056667;28;20467;-84
2023/05/09 07:42:03;;;;;;;6.70;5.30;;;;;;;;;;5072913;28;20408;-83
2023/05/09 07:44:29;;;;;;;5.60;5.10;;;;;;;;;;5073206;28;20406;-84
2023/05/09 07:46:57;;;;;;;5.77;4.87;;;;;;;;;;5074273;28;20502;-84
2023/05/09 07:49:24;;;;;;;5.30;4.30;;;;;;;;;;5073296;28;20443;-84
2023/05/09 07:51:50;;;;;;;5.00;4.40;;;;;;;;;;5072869;28;20370;-84
2023/05/09 07:54:16;;;;;;;6.37;4.93;;;;;;;;;;5073063;28;20419;-83
2023/05/09 07:56:42;;;;;;;5.97;4.60;;;;;;;;;;5074004;28;20449;-85
2023/05/09 07:59:08;;;;;;;3.87;3.57;;;;;;;;;;5072486;28;20429;-84
2023/05/09 08:01:34;;;;;;;3.90;3.50;;;;;;;;;;5072744;28;20416;-84
2023/05/09 08:04:00;;;;;;;5.40;3.67;;;;;;;;;;5073802;28;20402;-84
2023/05/09 08:06:26;;;;;;;3.80;3.23;;;;;;;;;;5074335;28;20415;-84
2023/05/09 08:08:52;;;;;;;3.50;3.03;;;;;;;;;;5056068;28;20405;-84
2023/05/09 08:11:18;;;;;;;3.77;3.43;;;;;;;;;;5056277;28;20434;-84
2023/05/09 08:13:44;;;;;;;6.70;3.90;;;;;;;;;;5073959;28;20374;-84
2023/05/09 08:16:10;;;;;;;2.90;2.70;;;;;;;;;;5072507;28;20492;-83
2023/05/09 08:18:37;;;;;;;4.60;2.93;;;;;;;;;;5072538;28;20958;-83
2023/05/09 08:21:04;;;;;;;4.00;2.90;;;;;;;;;;5072451;28;20929;-84
2023/05/09 08:23:30;;;;;;;6.20;2.80;;;;;;;;;;5072680;28;20460;-84
2023/05/09 08:25:57;;;;;;;3.63;2.60;;;;;;;;;;5055816;28;20419;-84
2023/05/09 08:28:23;;;;;;;3.30;2.97;;;;;;;;;;5072577;28;20410;-85
2023/05/09 08:30:52;;;;;;;3.40;2.93;;;;;;;;;;5055793;28;20469;-84
2023/05/09 08:33:18;;;;;;;3.20;2.90;;;;;;;;;;5072653;28;20403;-84
2023/05/09 08:35:45;;;;;;;2.63;2.43;;;;;;;;;;5073374;28;20822;-84
2023/05/09 08:38:11;;;;;;;3.27;2.70;;;;;;;;;;5072324;28;20459;-84
2023/05/09 08:40:37;;;;;;;3.77;2.70;;;;;;;;;;5072294;28;20418;-84
2023/05/09 08:43:07;;;;;;;2.90;2.63;;;;;;;;;;5073423;28;20399;-85
2023/05/09 08:45:35;;;;;;;2.87;2.63;;;;;;;;;;5072249;28;20926;-85
2023/05/09 08:48:05;;;;;;;4.10;2.60;;;;;;;;;;5072267;28;20412;-85
2023/05/09 08:50:31;;;;;;;4.13;2.27;;;;;;;;;;5072831;28;20791;-86
2023/05/09 08:52:57;;;;;;;4.70;2.30;;;;;;;;;;5055808;28;20415;-85
2023/05/09 08:55:24;;;;;;;3.00;2.60;;;;;;;;;;5073397;28;20403;-85
2023/05/09 08:57:52;;;;;;;3.50;3.20;;;;;;;;;;5071881;28;20405;-84
2023/05/09 09:00:19;;;;;;;3.77;2.50;;;;;;;;;;5072312;28;20403;-86
2023/05/09 09:02:45;;;;;;;3.00;2.60;;;;;;;;;;5071889;28;20413;-85
2023/05/09 09:05:11;;;;;;;4.17;2.27;;;;;;;;;;5072305;28;20422;-85
2023/05/09 09:07:38;;;;;;;4.07;2.50;;;;;;;;;;5072500;28;20370;-85
2023/05/09 09:10:04;;;;;;;5.50;3.07;;;;;;;;;;5072335;28;20522;-85
2023/05/09 09:12:31;;;;;;;2.77;2.57;;;;;;;;;;5076972;28;20418;-85
2023/05/09 09:14:59;;;;;;;5.03;2.83;;;;;;;;;;5075869;28;20419;-85
2023/05/09 09:17:26;;;;;;;5.53;2.40;;;;;;;;;;5075619;28;20896;-85
2023/05/09 09:19:55;;;;;;;3.13;2.70;;;;;;;;;;5076993;28;20987;-85
2023/05/09 09:22:21;;;;;;;2.90;2.67;;;;;;;;;;5075698;28;20413;-84
2023/05/09 09:24:47;;;;;;;4.33;2.87;;;;;;;;;;5077123;28;20410;-85
2023/05/09 09:27:14;;;;;;;4.60;2.53;;;;;;;;;;5059220;28;20829;-85
2023/05/09 09:29:40;;;;;;;4.03;2.70;;;;;;;;;;5058976;28;20411;-85
2023/05/09 09:32:06;;;;;;;3.27;2.97;;;;;;;;;;5074999;28;20407;-85
2023/05/09 09:34:32;;;;;;;4.40;3.00;;;;;;;;;;5059010;28;20403;-85
2023/05/09 09:36:58;;;;;;;4.60;3.43;;;;;;;;;;5058572;28;20418;-84
2023/05/09 09:39:24;;;;;;;4.40;3.47;;;;;;;;;;5077296;28;20542;-85
2023/05/09 09:41:50;;;;;;;3.20;2.53;;;;;;;;;;5076807;28;20374;-86
2023/05/09 09:44:17;;;;;;;3.10;2.80;;;;;;;;;;5077222;28;20399;-85
2023/05/09 09:46:51;;;;;;;3.53;2.93;;;;;;;;;;5058612;28;20415;-85
2023/05/09 09:49:24;;;;;;;2.63;2.43;;;;;;;;;;5076477;28;20384;-86
2023/05/09 09:51:51;;;;;;;2.53;2.33;;;;;;;;;;5075024;28;20420;-86
2023/05/09 09:54:17;;;;;;;3.27;2.43;;;;;;;;;;5074999;28;20738;-85
2023/05/09 09:56:45;;;;;;;3.77;3.47;;;;;;;;;;5074991;28;20926;-84
2023/05/09 09:59:18;;;;;;;4.97;2.73;;;;;;;;;;5076334;28;20453;-84
2023/05/09 10:02:03;;;;;;;2.50;2.30;;;;;;;;;;5076310;28;20399;-85
2023/05/09 10:04:33;;;;;;;3.40;2.37;;;;;;;;;;5076190;28;20422;-85
2023/05/09 10:07:00;;;;;;;3.50;2.53;;;;;;;;;;5074857;28;20460;-85
2023/05/09 10:09:26;;;;;;;2.93;2.73;;;;;;;;;;5076514;28;20403;-85
2023/05/09 10:11:53;;;;;;;3.37;2.90;;;;;;;;;;5076039;28;20457;-85
2023/05/09 10:14:20;;;;;;;2.40;2.20;;;;;;;;;;5076070;28;20486;-85
2023/05/09 10:16:51;;;;;;;9.70;2.50;;;;;;;;;;5074468;28;20471;-84
2023/05/09 10:19:18;;;;;;;5.50;2.60;;;;;;;;;;5075944;28;20459;-85
2023/05/09 10:21:48;;;;;;;6.90;2.70;;;;;;;;;;5074588;28;20422;-85
2023/05/09 10:24:15;;;;;;;3.40;2.33;;;;;;;;;;5073904;28;20411;-85
2023/05/09 10:26:45;;;;;;;3.30;2.27;;;;;;;;;;5058093;28;20911;-85
2023/05/09 10:29:12;;;;;;;5.13;2.63;;;;;;;;;;5074461;28;20783;-85
2023/05/09 10:31:39;;;;;;;2.60;2.30;;;;;;;;;;5074397;28;20899;-86
2023/05/09 10:34:08;;;;;;;3.20;2.90;;;;;;;;;;5074452;28;20412;-85
2023/05/09 10:36:35;;;;;;;3.03;2.50;;;;;;;;;;5074410;28;20411;-84
2023/05/09 10:39:01;;;;;;;3.73;2.43;;;;;;;;;;5075280;28;20816;-85
2023/05/09 10:41:28;;;;;;;2.63;2.43;;;;;;;;;;5074430;28;20422;-85
2023/05/09 10:43:58;;;;;;;2.47;2.17;;;;;;;;;;5075426;28;20407;-86
2023/05/09 10:46:25;;;;;;;2.70;2.10;;;;;;;;;;5075703;28;20407;-85
2023/05/09 10:48:52;;;;;;;2.47;2.27;;;;;;;;;;5057410;28;20820;-85
2023/05/09 10:51:18;;;;;;;2.40;2.20;;;;;;;;;;5074100;28;20498;-86
2023/05/09 10:53:48;;;;;;;5.03;2.53;;;;;;;;;;5057695;28;20415;-86
2023/05/09 10:56:23;;;;;;;3.20;2.67;;;;;;;;;;5073779;28;20411;-85
2023/05/09 10:58:49;;;;;;;3.20;2.60;;;;;;;;;;5075163;28;20458;-85
2023/05/09 11:01:27;;;;;;;3.40;2.80;;;;;;;;;;5075255;28;20469;-85
2023/05/09 11:03:58;;;;;;;2.70;2.30;;;;;;;;;;5073840;28;20907;-85
2023/05/09 11:06:43;;;;;;;3.50;2.20;;;;;;;;;;5075159;28;20521;-85
2023/05/09 11:09:31;;;;;;;4.50;2.63;;;;;;;;;;5075101;28;20775;-87
2023/05/09 11:12:04;;;;;;;4.77;2.50;;;;;;;;;;5063738;28;20517;-86
2023/05/09 11:14:38;;;;;;;5.43;2.63;;;;;;;;;;5073448;28;20910;-85
2023/05/09 11:17:14;;;;;;;2.80;2.60;;;;;;;;;;5073009;28;20474;-87
2023/05/09 11:19:46;;;;;;;2.90;2.47;;;;;;;;;;5074633;28;20458;-84
2023/05/09 11:22:26;;;;;;;2.80;2.53;;;;;;;;;;5073290;28;20426;-85
2023/05/09 11:25:00;;;;;;;3.23;2.43;;;;;;;;;;5073325;28;20427;-90
2023/05/09 11:27:29;;;;;;;4.20;2.27;;;;;;;;;;5073613;28;20411;-86
2023/05/09 11:29:57;;;;;;;3.10;2.10;;;;;;;;;;5074339;28;20403;-86
2023/05/09 11:32:27;;;;;;;2.23;2.03;;;;;;;;;;5073334;28;20479;-86
2023/05/09 11:35:05;;;;;;;7.40;2.67;;;;;;;;;;5072233;28;20415;-88
2023/05/09 11:37:31;;;;;;;5.67;2.30;;;;;;;;;;5074621;28;20487;-86
2023/05/09 11:39:59;;;;;;;2.43;2.23;;;;;;;;;;5073623;28;20568;-87
2023/05/09 11:42:28;;;;;;;3.10;1.97;;;;;;;;;;5074417;28;20411;-86
2023/05/09 11:44:55;;;;;;;3.27;2.23;;;;;;;;;;5072825;28;20407;-86
2023/05/09 11:47:22;;;;;;;4.93;2.37;;;;;;;;;;5056175;28;20427;-86
2023/05/09 11:49:51;;;;;;;4.43;2.57;;;;;;;;;;5072755;28;20423;-86
2023/05/09 11:52:20;;;;;;;10.93;2.50;;;;;;;;;;5072788;28;20778;-86
2023/05/09 11:54:48;;;;;;;4.30;2.33;;;;;;;;;;5073089;28;20419;-86
2023/05/09 11:57:16;;;;;;;3.87;2.50;;;;;;;;;;5073325;28;20927;-86
2023/05/09 11:59:44;;;;;;;3.33;2.30;;;;;;;;;;5073962;28;20451;-85
2023/05/09 12:02:10;;;;;;;5.33;2.27;;;;;;;;;;5074257;28;20831;-86
2023/05/09 12:04:37;;;;;;;2.60;2.20;;;;;;;;;;5074027;28;20457;-86
2023/05/09 12:07:03;;;;;;;4.17;2.30;;;;;;;;;;5072406;28;20411;-86
2023/05/09 12:09:33;;;;;;;3.87;2.30;;;;;;;;;;5073942;28;20407;-86
2023/05/09 12:12:00;;;;;;;1.60;1.50;;;;;;;;;;5074001;28;20805;-86
2023/05/09 12:14:30;;;;;;;3.73;2.07;;;;;;;;;;5073017;28;20736;-86
2023/05/09 12:16:56;;;;;;;3.80;1.90;;;;;;;;;;5072374;28;20459;-87
2023/05/09 12:19:23;;;;;;;2.93;2.03;;;;;;;;;;5073746;28;20447;-86
2023/05/09 12:21:49;;;;;;;4.13;2.03;;;;;;;;;;5072596;28;20415;-86
2023/05/09 12:24:20;;;;;;;2.73;2.53;;;;;;;;;;5073541;28;20410;-86
2023/05/09 12:26:47;;;;;;;2.20;2.00;;;;;;;;;;5072648;28;20408;-86
2023/05/09 12:29:13;;;;;;;2.50;2.30;;;;;;;;;;5073546;28;20403;-86
2023/05/09 12:31:40;;;;;;;5.90;1.80;;;;;;;;;;5072635;28;20453;-86
2023/05/09 12:34:10;;;;;;;3.47;1.73;;;;;;;;;;5072263;28;20442;-86
2023/05/09 12:36:36;;;;;;;2.00;1.77;;;;;;;;;;5072110;28;20426;-86
2023/05/09 12:39:02;;;;;;;3.40;1.80;;;;;;;;;;5055678;28;20515;-86
2023/05/09 12:41:28;;;;;;;2.10;1.50;;;;;;;;;;5072949;28;20419;-85
2023/05/09 12:43:55;;;;;;;2.83;2.33;;;;;;;;;;5074005;28;20475;-85
2023/05/09 12:46:21;;;;;;;4.50;3.30;;;;;;;;;;5074456;28;20411;-85
2023/05/09 12:48:48;;;;;;;2.73;1.80;;;;;;;;;;5060719;28;20906;-86
2023/05/09 12:51:23;;;;;;;2.73;2.03;;;;;;;;;;5077311;28;20407;-86
2023/05/09 12:53:49;;;;;;;2.70;1.93;;;;;;;;;;5076671;28;20425;-85
2023/05/09 12:56:19;;;;;;;2.13;2.00;;;;;;;;;;5076025;28;20453;-86
2023/05/09 12:58:49;;;;;;;2.50;2.30;;;;;;;;;;5077337;28;20821;-86
2023/05/09 13:01:16;;;;;;;2.27;2.07;;;;;;;;;;5076518;28;20979;-85
2023/05/09 13:03:43;;;;;;;2.40;1.83;;;;;;;;;;5077748;28;20757;-85
2023/05/09 13:06:12;;;;;;;3.90;2.67;;;;;;;;;;5077477;28;20404;-85
2023/05/09 13:08:38;;;;;;;4.50;2.00;;;;;;;;;;5076499;28;20813;-86
2023/05/09 13:11:04;;;;;;;2.63;2.13;;;;;;;;;;5078291;28;20400;-88
2023/05/09 13:13:31;;;;;;;4.70;2.43;;;;;;;;;;5060277;28;20421;-87
2023/05/09 13:15:57;;;;;;;2.87;1.80;;;;;;;;;;5079937;28;20430;-88
2023/05/09 13:18:23;;;;;;;2.37;1.93;;;;;;;;;;5081820;28;20481;-87
2023/05/09 13:20:50;;;;;;;2.00;1.80;;;;;;;;;;5079064;28;20426;-85
2023/05/09 13:23:17;;;;;;;3.33;2.63;;;;;;;;;;5077363;28;20410;-88
2023/05/09 13:25:43;;;;;;;3.40;1.83;;;;;;;;;;5075663;28;20422;-88
2023/05/09 13:28:09;;;;;;;3.77;1.90;;;;;;;;;;5075837;28;20492;-88
2023/05/09 13:30:35;;;;;;;2.23;1.70;;;;;;;;;;5075844;28;20425;-88
2023/05/09 13:33:01;;;;;;;4.17;1.83;;;;;;;;;;5076505;28;20411;-87
2023/05/09 13:35:27;;;;;;;2.33;2.00;;;;;;;;;;5076016;28;20823;-87
2023/05/09 13:37:53;;;;;;;2.37;2.17;;;;;;;;;;5077019;28;20404;-86
2023/05/09 13:40:19;;;;;;;5.57;4.20;;;;;;;;;;5058935;28;20509;-86
2023/05/09 13:42:47;;;;;;;9.43;6.67;;;;;;;;;;5058855;28;20434;-87
2023/05/09 13:45:13;;;;;;;6.30;5.70;;;;;;;;;;5075372;28;20415;-85
2023/05/09 13:47:40;;;;;;;9.70;7.00;;;;;;;;;;5075360;28;20414;-86
2023/05/09 13:50:07;;;;;;;6.17;5.60;;;;;;;;;;5058708;28;20433;-85
2023/05/09 13:52:33;;;;;;;7.93;4.97;;;;;;;;;;5075991;28;20414;-85
2023/05/09 13:54:59;;;;;;;11.53;5.13;;;;;;;;;;5075366;28;20386;-85
2023/05/09 13:57:25;;;;;;;17.00;7.10;;;;;;;;;;5073760;28;21032;-85
2023/05/09 13:59:52;;;;;;;9.23;8.27;;;;;;;;;;5075409;28;20970;-88
2023/05/09 14:02:18;;;;;;;9.47;8.60;;;;;;;;;;5058471;28;20470;-87
2023/05/09 14:04:44;;;;;;;10.70;9.20;;;;;;;;;;5075843;28;20819;-88
2023/05/09 14:07:12;;;;;;;12.10;10.90;;;;;;;;;;5079983;28;20425;-90
2023/05/09 14:09:38;;;;;;;11.60;9.10;;;;;;;;;;5078581;28;20386;-89
2023/05/09 14:12:06;;;;;;;11.80;10.70;;;;;;;;;;5081546;28;20434;-89
2023/05/09 14:14:32;;;;;;;13.47;10.73;;;;;;;;;;5085142;28;20400;-89
2023/05/09 14:16:58;;;;;;;16.60;12.23;;;;;;;;;;5082143;28;20459;-88
2023/05/09 14:19:26;;;;;;;14.10;12.67;;;;;;;;;;5078518;28;20435;-87
2023/05/09 14:21:52;;;;;;;13.67;12.37;;;;;;;;;;5075892;28;20776;-87
2023/05/09 14:24:18;;;;;;;14.07;12.73;;;;;;;;;;5075886;28;20422;-87
2023/05/09 14:26:45;;;;;;;13.67;11.60;;;;;;;;;;5081122;28;20442;-88
2023/05/09 14:29:11;;;;;;;14.93;12.60;;;;;;;;;;5079507;28;20447;-88